sensor_id;sensor_type;location;lat;lon;timestamp;temperature;humidity
10873;DHT22;34586;53.616;10.032;2023-09-07T00:01:31;19.30;99.90
10873;DHT22;34586;53.616;10.032;2023-09-07T00:03:57;19.20;99.90
10873;DHT22;34586;53.616;10.032;2023-09-07T00:06:23;19.20;99.90
10873;DHT22;34586;53.616;10.032;2023-09-07T00:08:48;19.10;99.90
10873;DHT22;34586;53.616;10.032;2023-09-07T00:11:14;19.00;99.90
10873;DHT22;34586;53.616;10.032;2023-09-07T00:13:40;19.00;99.90
10873;DHT22;34586;53.616;10.032;2023-09-07T00:16:06;19.00;99.90
10873;DHT22;34586;53.616;10.032;2023-09-07T00:18:32;18.90;99.90
10873;DHT22;34586;53.616;10.032;2023-09-07T00:21:01;18.90;99.90
10873;DHT22;34586;53.616;10.032;2023-09-07T00:23:26;18.90;99.90
10873;DHT22;34586;53.616;10.032;2023-09-07T00:25:52;18.80;99.90
10873;DHT22;34586;53.616;10.032;2023-09-07T00:28:18;18.80;99.90
10873;DHT22;34586;53.616;10.032;2023-09-07T00:30:44;18.70;99.90
10873;DHT22;34586;53.616;10.032;2023-09-07T00:33:10;18.70;99.90
10873;DHT22;34586;53.616;10.032;2023-09-07T00:35:36;18.60;99.90
10873;DHT22;34586;53.616;10.032;2023-09-07T00:38:02;18.60;99.90
10873;DHT22;34586;53.616;10.032;2023-09-07T00:40:27;18.60;99.90
10873;DHT22;34586;53.616;10.032;2023-09-07T00:42:53;18.50;99.90
10873;DHT22;34586;53.616;10.032;2023-09-07T00:45:19;18.50;99.90
10873;DHT22;34586;53.616;10.032;2023-09-07T00:47:45;18.40;99.90
10873;DHT22;34586;53.616;10.032;2023-09-07T00:50:11;18.40;99.90
10873;DHT22;34586;53.616;10.032;2023-09-07T00:52:42;18.30;99.90
10873;DHT22;34586;53.616;10.032;2023-09-07T00:55:08;18.30;99.90
10873;DHT22;34586;53.616;10.032;2023-09-07T00:57:35;18.30;99.90
10873;DHT22;34586;53.616;10.032;2023-09-07T01:00:02;18.20;99.90
10873;DHT22;34586;53.616;10.032;2023-09-07T01:02:29;18.20;99.90
10873;DHT22;34586;53.616;10.032;2023-09-07T01:04:55;18.20;99.90
10873;DHT22;34586;53.616;10.032;2023-09-07T01:07:26;18.20;99.90
10873;DHT22;34586;53.616;10.032;2023-09-07T01:09:57;18.10;99.90
10873;DHT22;34586;53.616;10.032;2023-09-07T01:12:23;18.10;99.90
10873;DHT22;34586;53.616;10.032;2023-09-07T01:14:49;18.10;99.90
10873;DHT22;34586;53.616;10.032;2023-09-07T01:17:15;18.10;99.90
10873;DHT22;34586;53.616;10.032;2023-09-07T01:19:41;18.10;99.90
10873;DHT22;34586;53.616;10.032;2023-09-07T01:22:08;18.00;99.90
10873;DHT22;34586;53.616;10.032;2023-09-07T01:24:34;18.00;99.90
10873;DHT22;34586;53.616;10.032;2023-09-07T01:27:03;17.90;99.90
10873;DHT22;34586;53.616;10.032;2023-09-07T01:29:30;17.90;99.90
10873;DHT22;34586;53.616;10.032;2023-09-07T01:31:56;17.90;99.90
10873;DHT22;34586;53.616;10.032;2023-09-07T01:34:23;17.80;99.90
10873;DHT22;34586;53.616;10.032;2023-09-07T01:36:49;17.80;99.90
10873;DHT22;34586;53.616;10.032;2023-09-07T01:39:15;17.80;99.90
10873;DHT22;34586;53.616;10.032;2023-09-07T01:41:42;17.70;99.90
10873;DHT22;34586;53.616;10.032;2023-09-07T01:44:07;17.70;99.90
10873;DHT22;34586;53.616;10.032;2023-09-07T01:46:33;17.70;99.90
10873;DHT22;34586;53.616;10.032;2023-09-07T01:49:01;17.60;99.90
10873;DHT22;34586;53.616;10.032;2023-09-07T01:51:26;17.60;99.90
10873;DHT22;34586;53.616;10.032;2023-09-07T01:53:53;17.60;99.90
10873;DHT22;34586;53.616;10.032;2023-09-07T01:56:19;17.60;99.90
10873;DHT22;34586;53.616;10.032;2023-09-07T01:58:45;17.50;99.90
10873;DHT22;34586;53.616;10.032;2023-09-07T02:01:24;17.50;99.90
10873;DHT22;34586;53.616;10.032;2023-09-07T02:03:49;17.40;99.90
10873;DHT22;34586;53.616;10.032;2023-09-07T02:06:15;17.40;99.90
10873;DHT22;34586;53.616;10.032;2023-09-07T02:08:41;17.30;99.90
10873;DHT22;34586;53.616;10.032;2023-09-07T02:11:06;17.30;99.90
10873;DHT22;34586;53.616;10.032;2023-09-07T02:13:32;17.30;99.90
10873;DHT22;34586;53.616;10.032;2023-09-07T02:15:58;17.30;99.90
10873;DHT22;34586;53.616;10.032;2023-09-07T02:18:23;17.30;99.90
10873;DHT22;34586;53.616;10.032;2023-09-07T02:20:49;17.20;99.90
10873;DHT22;34586;53.616;10.032;2023-09-07T02:23:14;17.20;99.90
10873;DHT22;34586;53.616;10.032;2023-09-07T02:25:41;17.20;99.90
10873;DHT22;34586;53.616;10.032;2023-09-07T02:28:06;17.10;99.90
10873;DHT22;34586;53.616;10.032;2023-09-07T02:30:32;17.10;99.90
10873;DHT22;34586;53.616;10.032;2023-09-07T02:32:57;17.10;99.90
10873;DHT22;34586;53.616;10.032;2023-09-07T02:35:23;17.10;99.90
10873;DHT22;34586;53.616;10.032;2023-09-07T02:37:48;17.00;99.90
10873;DHT22;34586;53.616;10.032;2023-09-07T02:40:14;17.00;99.90
10873;DHT22;34586;53.616;10.032;2023-09-07T02:42:41;16.90;99.90
10873;DHT22;34586;53.616;10.032;2023-09-07T02:45:10;16.90;99.90
10873;DHT22;34586;53.616;10.032;2023-09-07T02:47:36;16.90;99.90
10873;DHT22;34586;53.616;10.032;2023-09-07T02:50:02;16.80;99.90
10873;DHT22;34586;53.616;10.032;2023-09-07T02:52:28;16.80;99.90
10873;DHT22;34586;53.616;10.032;2023-09-07T02:54:53;16.70;99.90
10873;DHT22;34586;53.616;10.032;2023-09-07T02:57:19;16.70;99.90
10873;DHT22;34586;53.616;10.032;2023-09-07T02:59:44;16.70;99.90
10873;DHT22;34586;53.616;10.032;2023-09-07T03:02:10;16.60;99.90
10873;DHT22;34586;53.616;10.032;2023-09-07T03:04:35;16.60;99.90
10873;DHT22;34586;53.616;10.032;2023-09-07T03:07:01;16.60;99.90
10873;DHT22;34586;53.616;10.032;2023-09-07T03:09:27;16.50;99.90
10873;DHT22;34586;53.616;10.032;2023-09-07T03:11:53;16.50;99.90
10873;DHT22;34586;53.616;10.032;2023-09-07T03:14:18;16.50;99.90
10873;DHT22;34586;53.616;10.032;2023-09-07T03:16:44;16.40;99.90
10873;DHT22;34586;53.616;10.032;2023-09-07T03:19:09;16.40;99.90
10873;DHT22;34586;53.616;10.032;2023-09-07T03:21:35;16.40;99.90
10873;DHT22;34586;53.616;10.032;2023-09-07T03:24:00;16.40;99.90
10873;DHT22;34586;53.616;10.032;2023-09-07T03:26:26;16.30;99.90
10873;DHT22;34586;53.616;10.032;2023-09-07T03:28:52;16.30;99.90
10873;DHT22;34586;53.616;10.032;2023-09-07T03:31:17;16.30;99.90
10873;DHT22;34586;53.616;10.032;2023-09-07T03:33:43;16.30;99.90
10873;DHT22;34586;53.616;10.032;2023-09-07T03:36:09;16.20;99.90
10873;DHT22;34586;53.616;10.032;2023-09-07T03:38:35;16.20;99.90
10873;DHT22;34586;53.616;10.032;2023-09-07T03:41:01;16.20;99.90
10873;DHT22;34586;53.616;10.032;2023-09-07T03:43:27;16.20;99.90
10873;DHT22;34586;53.616;10.032;2023-09-07T03:45:52;16.20;99.90
10873;DHT22;34586;53.616;10.032;2023-09-07T03:48:18;16.20;99.90
10873;DHT22;34586;53.616;10.032;2023-09-07T03:50:44;16.20;99.90
10873;DHT22;34586;53.616;10.032;2023-09-07T03:53:10;16.10;99.90
10873;DHT22;34586;53.616;10.032;2023-09-07T03:55:43;16.10;99.90
10873;DHT22;34586;53.616;10.032;2023-09-07T03:58:10;16.10;99.90
10873;DHT22;34586;53.616;10.032;2023-09-07T04:00:39;16.10;99.90
10873;DHT22;34586;53.616;10.032;2023-09-07T04:03:06;16.10;99.90
10873;DHT22;34586;53.616;10.032;2023-09-07T04:05:32;16.10;99.90
10873;DHT22;34586;53.616;10.032;2023-09-07T04:07:58;16.00;99.90
10873;DHT22;34586;53.616;10.032;2023-09-07T04:10:24;16.00;99.90
10873;DHT22;34586;53.616;10.032;2023-09-07T04:12:50;15.90;99.90
10873;DHT22;34586;53.616;10.032;2023-09-07T04:15:15;15.90;99.90
10873;DHT22;34586;53.616;10.032;2023-09-07T04:17:41;15.90;99.90
10873;DHT22;34586;53.616;10.032;2023-09-07T04:20:08;15.90;99.90
10873;DHT22;34586;53.616;10.032;2023-09-07T04:22:34;15.90;99.90
10873;DHT22;34586;53.616;10.032;2023-09-07T04:25:01;15.80;99.90
10873;DHT22;34586;53.616;10.032;2023-09-07T04:27:26;15.80;99.90
10873;DHT22;34586;53.616;10.032;2023-09-07T04:29:52;15.80;99.90
10873;DHT22;34586;53.616;10.032;2023-09-07T04:32:19;15.80;99.90
10873;DHT22;34586;53.616;10.032;2023-09-07T04:34:44;15.80;99.90
10873;DHT22;34586;53.616;10.032;2023-09-07T04:37:11;15.80;99.90
10873;DHT22;34586;53.616;10.032;2023-09-07T04:39:36;15.80;99.90
10873;DHT22;34586;53.616;10.032;2023-09-07T04:42:02;15.80;99.90
10873;DHT22;34586;53.616;10.032;2023-09-07T04:44:28;15.70;99.90
10873;DHT22;34586;53.616;10.032;2023-09-07T04:46:57;15.70;99.90
10873;DHT22;34586;53.616;10.032;2023-09-07T04:49:25;15.70;99.90
10873;DHT22;34586;53.616;10.032;2023-09-07T04:51:53;15.70;99.90
10873;DHT22;34586;53.616;10.032;2023-09-07T04:54:19;15.70;99.90
10873;DHT22;34586;53.616;10.032;2023-09-07T04:56:45;15.70;99.90
10873;DHT22;34586;53.616;10.032;2023-09-07T04:59:11;15.70;99.90
10873;DHT22;34586;53.616;10.032;2023-09-07T05:01:36;15.70;99.90
10873;DHT22;34586;53.616;10.032;2023-09-07T05:04:02;15.80;99.90
10873;DHT22;34586;53.616;10.032;2023-09-07T05:06:29;15.80;99.90
10873;DHT22;34586;53.616;10.032;2023-09-07T05:08:55;15.80;99.90
10873;DHT22;34586;53.616;10.032;2023-09-07T05:11:20;15.80;99.90
10873;DHT22;34586;53.616;10.032;2023-09-07T05:13:46;15.80;99.90
10873;DHT22;34586;53.616;10.032;2023-09-07T05:16:12;15.80;99.90
10873;DHT22;34586;53.616;10.032;2023-09-07T05:18:37;15.80;99.90
10873;DHT22;34586;53.616;10.032;2023-09-07T05:21:13;15.80;99.90
10873;DHT22;34586;53.616;10.032;2023-09-07T05:23:39;15.90;99.90
10873;DHT22;34586;53.616;10.032;2023-09-07T05:26:05;15.90;99.90
10873;DHT22;34586;53.616;10.032;2023-09-07T05:28:30;16.00;99.90
10873;DHT22;34586;53.616;10.032;2023-09-07T05:30:56;16.00;99.90
10873;DHT22;34586;53.616;10.032;2023-09-07T05:33:21;16.00;99.90
10873;DHT22;34586;53.616;10.032;2023-09-07T05:35:47;16.10;99.90
10873;DHT22;34586;53.616;10.032;2023-09-07T05:38:13;16.10;99.90
10873;DHT22;34586;53.616;10.032;2023-09-07T05:40:43;16.10;99.90
10873;DHT22;34586;53.616;10.032;2023-09-07T05:43:10;16.20;99.90
10873;DHT22;34586;53.616;10.032;2023-09-07T05:45:38;16.30;99.90
10873;DHT22;34586;53.616;10.032;2023-09-07T05:48:04;16.30;99.90
10873;DHT22;34586;53.616;10.032;2023-09-07T05:50:30;16.50;99.90
10873;DHT22;34586;53.616;10.032;2023-09-07T05:52:55;16.50;99.90
10873;DHT22;34586;53.616;10.032;2023-09-07T05:55:21;16.60;99.90
10873;DHT22;34586;53.616;10.032;2023-09-07T05:57:48;16.70;99.90
10873;DHT22;34586;53.616;10.032;2023-09-07T06:00:14;16.70;99.90
10873;DHT22;34586;53.616;10.032;2023-09-07T06:02:42;16.80;99.90
10873;DHT22;34586;53.616;10.032;2023-09-07T06:05:08;16.90;99.90
10873;DHT22;34586;53.616;10.032;2023-09-07T06:07:33;17.00;99.90
10873;DHT22;34586;53.616;10.032;2023-09-07T06:09:59;17.10;99.90
10873;DHT22;34586;53.616;10.032;2023-09-07T06:12:25;17.20;99.90
10873;DHT22;34586;53.616;10.032;2023-09-07T06:14:50;17.30;99.90
10873;DHT22;34586;53.616;10.032;2023-09-07T06:17:16;17.30;99.90
10873;DHT22;34586;53.616;10.032;2023-09-07T06:19:41;17.40;99.90
10873;DHT22;34586;53.616;10.032;2023-09-07T06:22:08;17.50;99.90
10873;DHT22;34586;53.616;10.032;2023-09-07T06:24:33;17.60;99.90
10873;DHT22;34586;53.616;10.032;2023-09-07T06:26:59;17.60;99.90
10873;DHT22;34586;53.616;10.032;2023-09-07T06:29:24;17.70;99.90
10873;DHT22;34586;53.616;10.032;2023-09-07T06:31:50;17.80;99.90
10873;DHT22;34586;53.616;10.032;2023-09-07T06:34:16;17.90;99.90
10873;DHT22;34586;53.616;10.032;2023-09-07T06:36:41;17.90;99.90
10873;DHT22;34586;53.616;10.032;2023-09-07T06:39:07;18.00;99.90
10873;DHT22;34586;53.616;10.032;2023-09-07T06:41:33;18.10;99.90
10873;DHT22;34586;53.616;10.032;2023-09-07T06:43:58;18.30;99.90
10873;DHT22;34586;53.616;10.032;2023-09-07T06:46:24;18.40;99.90
10873;DHT22;34586;53.616;10.032;2023-09-07T06:48:49;18.50;99.90
10873;DHT22;34586;53.616;10.032;2023-09-07T06:51:15;18.60;99.90
10873;DHT22;34586;53.616;10.032;2023-09-07T06:53:41;18.70;99.90
10873;DHT22;34586;53.616;10.032;2023-09-07T06:56:06;18.70;99.90
10873;DHT22;34586;53.616;10.032;2023-09-07T06:58:32;18.80;99.90
10873;DHT22;34586;53.616;10.032;2023-09-07T07:01:00;18.90;99.90
10873;DHT22;34586;53.616;10.032;2023-09-07T07:03:29;19.00;99.90
10873;DHT22;34586;53.616;10.032;2023-09-07T07:05:56;19.10;99.90
10873;DHT22;34586;53.616;10.032;2023-09-07T07:08:22;19.10;99.90
10873;DHT22;34586;53.616;10.032;2023-09-07T07:10:48;19.30;99.90
10873;DHT22;34586;53.616;10.032;2023-09-07T07:13:14;19.40;99.90
10873;DHT22;34586;53.616;10.032;2023-09-07T07:15:39;19.40;99.90
10873;DHT22;34586;53.616;10.032;2023-09-07T07:18:05;19.50;99.90
10873;DHT22;34586;53.616;10.032;2023-09-07T07:20:38;19.60;99.90
10873;DHT22;34586;53.616;10.032;2023-09-07T07:23:04;19.60;99.90
10873;DHT22;34586;53.616;10.032;2023-09-07T07:25:31;19.70;99.90
10873;DHT22;34586;53.616;10.032;2023-09-07T07:27:59;19.80;99.90
10873;DHT22;34586;53.616;10.032;2023-09-07T07:30:27;19.80;99.90
10873;DHT22;34586;53.616;10.032;2023-09-07T07:32:54;19.90;99.90
10873;DHT22;34586;53.616;10.032;2023-09-07T07:35:20;19.90;99.90
10873;DHT22;34586;53.616;10.032;2023-09-07T07:37:45;20.00;99.90
10873;DHT22;34586;53.616;10.032;2023-09-07T07:40:11;20.10;99.90
10873;DHT22;34586;53.616;10.032;2023-09-07T07:42:37;20.20;99.90
10873;DHT22;34586;53.616;10.032;2023-09-07T07:45:02;20.20;99.90
10873;DHT22;34586;53.616;10.032;2023-09-07T07:47:28;20.30;99.90
10873;DHT22;34586;53.616;10.032;2023-09-07T07:49:54;20.40;99.90
10873;DHT22;34586;53.616;10.032;2023-09-07T07:52:19;20.50;99.90
10873;DHT22;34586;53.616;10.032;2023-09-07T07:54:45;20.60;99.90
10873;DHT22;34586;53.616;10.032;2023-09-07T07:57:10;20.60;99.90
10873;DHT22;34586;53.616;10.032;2023-09-07T07:59:37;20.80;99.90
10873;DHT22;34586;53.616;10.032;2023-09-07T08:02:03;21.00;99.90
10873;DHT22;34586;53.616;10.032;2023-09-07T08:04:28;21.10;99.90
10873;DHT22;34586;53.616;10.032;2023-09-07T08:06:54;21.10;99.90
10873;DHT22;34586;53.616;10.032;2023-09-07T08:09:23;21.10;98.80
10873;DHT22;34586;53.616;10.032;2023-09-07T08:11:49;21.20;28.80
10873;DHT22;34586;53.616;10.032;2023-09-07T08:14:16;21.20;33.40
10873;DHT22;34586;53.616;10.032;2023-09-07T08:16:41;21.30;15.10
10873;DHT22;34586;53.616;10.032;2023-09-07T08:19:07;21.40;1.00
10873;DHT22;34586;53.616;10.032;2023-09-07T08:21:32;21.60;1.00
10873;DHT22;34586;53.616;10.032;2023-09-07T08:23:58;21.60;1.00
10873;DHT22;34586;53.616;10.032;2023-09-07T08:26:25;21.70;1.00
10873;DHT22;34586;53.616;10.032;2023-09-07T08:28:51;21.70;1.00
10873;DHT22;34586;53.616;10.032;2023-09-07T08:31:16;21.80;1.00
10873;DHT22;34586;53.616;10.032;2023-09-07T08:33:47;21.90;1.00
10873;DHT22;34586;53.616;10.032;2023-09-07T08:36:16;21.90;99.90
10873;DHT22;34586;53.616;10.032;2023-09-07T08:38:43;22.00;1.00
10873;DHT22;34586;53.616;10.032;2023-09-07T08:41:09;22.10;1.00
10873;DHT22;34586;53.616;10.032;2023-09-07T08:43:44;22.10;1.00
10873;DHT22;34586;53.616;10.032;2023-09-07T08:46:17;22.20;99.90
10873;DHT22;34586;53.616;10.032;2023-09-07T08:48:43;22.30;23.60
10873;DHT22;34586;53.616;10.032;2023-09-07T08:51:12;22.30;97.60
10873;DHT22;34586;53.616;10.032;2023-09-07T08:53:39;22.40;99.90
10873;DHT22;34586;53.616;10.032;2023-09-07T08:56:06;22.50;99.90
10873;DHT22;34586;53.616;10.032;2023-09-07T08:58:32;22.50;50.10
10873;DHT22;34586;53.616;10.032;2023-09-07T09:00:58;22.60;1.00
10873;DHT22;34586;53.616;10.032;2023-09-07T09:03:23;22.70;99.90
10873;DHT22;34586;53.616;10.032;2023-09-07T09:05:50;22.80;99.90
10873;DHT22;34586;53.616;10.032;2023-09-07T09:08:16;22.80;1.00
10873;DHT22;34586;53.616;10.032;2023-09-07T09:10:59;22.90;99.90
10873;DHT22;34586;53.616;10.032;2023-09-07T09:13:32;23.00;99.90
10873;DHT22;34586;53.616;10.032;2023-09-07T09:16:01;23.20;1.00
10873;DHT22;34586;53.616;10.032;2023-09-07T09:18:27;23.20;99.90
10873;DHT22;34586;53.616;10.032;2023-09-07T09:20:54;23.40;99.90
10873;DHT22;34586;53.616;10.032;2023-09-07T09:23:20;23.50;1.00
10873;DHT22;34586;53.616;10.032;2023-09-07T09:25:48;23.60;1.00
10873;DHT22;34586;53.616;10.032;2023-09-07T09:28:14;23.80;1.00
10873;DHT22;34586;53.616;10.032;2023-09-07T09:30:41;23.90;1.00
10873;DHT22;34586;53.616;10.032;2023-09-07T09:33:10;23.90;1.00
10873;DHT22;34586;53.616;10.032;2023-09-07T09:35:38;24.00;1.00
10873;DHT22;34586;53.616;10.032;2023-09-07T09:38:05;25.40;47.60
10873;DHT22;34586;53.616;10.032;2023-09-07T09:40:32;24.00;1.00
10873;DHT22;34586;53.616;10.032;2023-09-07T09:43:01;24.10;1.00
10873;DHT22;34586;53.616;10.032;2023-09-07T09:45:27;24.20;99.90
10873;DHT22;34586;53.616;10.032;2023-09-07T09:47:54;24.20;99.90
10873;DHT22;34586;53.616;10.032;2023-09-07T09:50:22;24.30;1.00
10873;DHT22;34586;53.616;10.032;2023-09-07T09:52:48;24.40;99.90
10873;DHT22;34586;53.616;10.032;2023-09-07T09:55:14;24.40;55.10
10873;DHT22;34586;53.616;10.032;2023-09-07T09:57:40;24.50;99.90
10873;DHT22;34586;53.616;10.032;2023-09-07T10:00:07;24.60;99.90
10873;DHT22;34586;53.616;10.032;2023-09-07T10:03:04;24.60;99.90
10873;DHT22;34586;53.616;10.032;2023-09-07T10:05:31;24.60;99.90
10873;DHT22;34586;53.616;10.032;2023-09-07T10:08:04;24.70;99.90
10873;DHT22;34586;53.616;10.032;2023-09-07T10:10:36;24.70;99.90
10873;DHT22;34586;53.616;10.032;2023-09-07T10:13:03;24.80;99.90
10873;DHT22;34586;53.616;10.032;2023-09-07T10:15:29;24.70;99.90
10873;DHT22;34586;53.616;10.032;2023-09-07T10:18:13;24.70;99.90
10873;DHT22;34586;53.616;10.032;2023-09-07T10:23:18;24.90;99.90
10873;DHT22;34586;53.616;10.032;2023-09-07T10:25:47;25.00;16.60
10873;DHT22;34586;53.616;10.032;2023-09-07T10:30:45;25.10;99.90
10873;DHT22;34586;53.616;10.032;2023-09-07T10:33:20;25.10;1.00
10873;DHT22;34586;53.616;10.032;2023-09-07T10:35:46;25.20;1.00
10873;DHT22;34586;53.616;10.032;2023-09-07T10:38:15;25.20;1.00
10873;DHT22;34586;53.616;10.032;2023-09-07T10:40:43;25.20;1.00
10873;DHT22;34586;53.616;10.032;2023-09-07T10:43:09;25.30;1.00
10873;DHT22;34586;53.616;10.032;2023-09-07T10:45:35;25.30;1.00
10873;DHT22;34586;53.616;10.032;2023-09-07T10:48:00;25.20;1.00
10873;DHT22;34586;53.616;10.032;2023-09-07T10:50:26;25.20;1.00
10873;DHT22;34586;53.616;10.032;2023-09-07T10:52:53;25.40;1.00
10873;DHT22;34586;53.616;10.032;2023-09-07T10:55:18;25.50;99.90
10873;DHT22;34586;53.616;10.032;2023-09-07T10:57:45;25.50;99.90
10873;DHT22;34586;53.616;10.032;2023-09-07T11:00:11;25.50;1.00
10873;DHT22;34586;53.616;10.032;2023-09-07T11:02:38;25.50;1.00
10873;DHT22;34586;53.616;10.032;2023-09-07T11:05:04;25.50;1.00
10873;DHT22;34586;53.616;10.032;2023-09-07T11:07:30;25.60;1.00
10873;DHT22;34586;53.616;10.032;2023-09-07T11:09:56;25.60;99.90
10873;DHT22;34586;53.616;10.032;2023-09-07T11:12:21;25.70;1.00
10873;DHT22;34586;53.616;10.032;2023-09-07T11:14:47;25.70;99.90
10873;DHT22;34586;53.616;10.032;2023-09-07T11:17:16;25.70;1.00
10873;DHT22;34586;53.616;10.032;2023-09-07T11:19:42;25.80;1.00
10873;DHT22;34586;53.616;10.032;2023-09-07T11:22:11;25.90;99.90
10873;DHT22;34586;53.616;10.032;2023-09-07T11:24:36;26.00;99.90
10873;DHT22;34586;53.616;10.032;2023-09-07T11:27:03;26.00;99.90
10873;DHT22;34586;53.616;10.032;2023-09-07T11:29:31;26.00;99.90
10873;DHT22;34586;53.616;10.032;2023-09-07T11:32:07;26.10;99.90
10873;DHT22;34586;53.616;10.032;2023-09-07T11:34:33;26.10;99.90
10873;DHT22;34586;53.616;10.032;2023-09-07T11:36:58;26.30;1.00
10873;DHT22;34586;53.616;10.032;2023-09-07T11:39:24;26.30;99.90
10873;DHT22;34586;53.616;10.032;2023-09-07T11:41:49;26.40;99.90
10873;DHT22;34586;53.616;10.032;2023-09-07T11:44:15;26.50;1.00
10873;DHT22;34586;53.616;10.032;2023-09-07T11:46:40;26.60;99.90
10873;DHT22;34586;53.616;10.032;2023-09-07T11:49:06;26.60;98.50
10873;DHT22;34586;53.616;10.032;2023-09-07T11:51:32;26.70;99.90
10873;DHT22;34586;53.616;10.032;2023-09-07T11:53:58;26.80;1.00
10873;DHT22;34586;53.616;10.032;2023-09-07T11:56:24;26.80;1.00
10873;DHT22;34586;53.616;10.032;2023-09-07T11:58:50;26.80;1.00
10873;DHT22;34586;53.616;10.032;2023-09-07T12:01:15;26.90;1.00
10873;DHT22;34586;53.616;10.032;2023-09-07T12:03:42;27.00;1.00
10873;DHT22;34586;53.616;10.032;2023-09-07T12:06:08;27.10;97.10
10873;DHT22;34586;53.616;10.032;2023-09-07T12:08:36;27.30;1.00
10873;DHT22;34586;53.616;10.032;2023-09-07T12:11:02;27.40;1.00
10873;DHT22;34586;53.616;10.032;2023-09-07T12:13:27;27.60;99.90
10873;DHT22;34586;53.616;10.032;2023-09-07T12:15:53;27.70;1.00
10873;DHT22;34586;53.616;10.032;2023-09-07T12:18:19;27.80;99.90
10873;DHT22;34586;53.616;10.032;2023-09-07T12:20:44;27.90;99.90
10873;DHT22;34586;53.616;10.032;2023-09-07T12:23:10;28.00;99.90
10873;DHT22;34586;53.616;10.032;2023-09-07T12:25:36;28.30;1.00
10873;DHT22;34586;53.616;10.032;2023-09-07T12:28:02;28.90;1.00
10873;DHT22;34586;53.616;10.032;2023-09-07T12:30:44;29.40;1.00
10873;DHT22;34586;53.616;10.032;2023-09-07T12:36:39;30.20;99.90
10873;DHT22;34586;53.616;10.032;2023-09-07T12:39:08;30.70;99.90
10873;DHT22;34586;53.616;10.032;2023-09-07T12:41:34;30.20;99.90
10873;DHT22;34586;53.616;10.032;2023-09-07T12:44:04;30.60;99.90
10873;DHT22;34586;53.616;10.032;2023-09-07T12:46:31;30.60;99.90
10873;DHT22;34586;53.616;10.032;2023-09-07T12:48:56;30.70;99.90
10873;DHT22;34586;53.616;10.032;2023-09-07T12:51:22;30.90;99.90
10873;DHT22;34586;53.616;10.032;2023-09-07T12:53:48;31.00;99.90
10873;DHT22;34586;53.616;10.032;2023-09-07T12:56:13;31.00;99.90
10873;DHT22;34586;53.616;10.032;2023-09-07T12:58:41;30.80;99.90
10873;DHT22;34586;53.616;10.032;2023-09-07T13:01:07;30.90;99.90
10873;DHT22;34586;53.616;10.032;2023-09-07T13:03:36;30.80;99.90
10873;DHT22;34586;53.616;10.032;2023-09-07T13:06:03;30.90;99.90
10873;DHT22;34586;53.616;10.032;2023-09-07T13:08:29;29.90;99.90
10873;DHT22;34586;53.616;10.032;2023-09-07T13:10:55;30.60;99.90
10873;DHT22;34586;53.616;10.032;2023-09-07T13:13:21;30.80;99.90
10873;DHT22;34586;53.616;10.032;2023-09-07T13:15:47;30.90;99.90
10873;DHT22;34586;53.616;10.032;2023-09-07T13:18:13;30.90;99.90
10873;DHT22;34586;53.616;10.032;2023-09-07T13:20:39;30.80;99.90
10873;DHT22;34586;53.616;10.032;2023-09-07T13:23:06;30.80;99.90
10873;DHT22;34586;53.616;10.032;2023-09-07T13:25:32;30.70;99.90
10873;DHT22;34586;53.616;10.032;2023-09-07T13:27:58;30.60;99.90
10873;DHT22;34586;53.616;10.032;2023-09-07T13:30:23;30.60;99.90
10873;DHT22;34586;53.616;10.032;2023-09-07T13:32:49;30.60;99.90
10873;DHT22;34586;53.616;10.032;2023-09-07T13:35:15;30.60;99.90
10873;DHT22;34586;53.616;10.032;2023-09-07T13:37:41;30.50;99.90
10873;DHT22;34586;53.616;10.032;2023-09-07T13:40:07;30.50;99.90
10873;DHT22;34586;53.616;10.032;2023-09-07T13:42:33;30.40;99.90
10873;DHT22;34586;53.616;10.032;2023-09-07T13:44:58;30.50;99.90
10873;DHT22;34586;53.616;10.032;2023-09-07T13:47:24;30.30;99.90
10873;DHT22;34586;53.616;10.032;2023-09-07T13:49:50;30.30;99.90
10873;DHT22;34586;53.616;10.032;2023-09-07T13:52:15;30.30;99.90
10873;DHT22;34586;53.616;10.032;2023-09-07T13:54:41;30.30;99.90
10873;DHT22;34586;53.616;10.032;2023-09-07T13:57:07;30.30;99.90
10873;DHT22;34586;53.616;10.032;2023-09-07T13:59:34;30.40;99.90
10873;DHT22;34586;53.616;10.032;2023-09-07T14:02:00;30.60;99.90
10873;DHT22;34586;53.616;10.032;2023-09-07T14:04:31;30.50;99.90
10873;DHT22;34586;53.616;10.032;2023-09-07T14:06:58;30.60;99.90
10873;DHT22;34586;53.616;10.032;2023-09-07T14:09:23;30.60;99.90
10873;DHT22;34586;53.616;10.032;2023-09-07T14:11:49;30.70;99.90
10873;DHT22;34586;53.616;10.032;2023-09-07T14:14:15;30.60;99.90
10873;DHT22;34586;53.616;10.032;2023-09-07T14:16:42;30.30;99.90
10873;DHT22;34586;53.616;10.032;2023-09-07T14:19:07;30.30;99.90
10873;DHT22;34586;53.616;10.032;2023-09-07T14:21:33;29.90;99.90
10873;DHT22;34586;53.616;10.032;2023-09-07T14:23:59;29.80;99.90
10873;DHT22;34586;53.616;10.032;2023-09-07T14:26:25;29.60;99.90
10873;DHT22;34586;53.616;10.032;2023-09-07T14:28:51;29.40;99.90
10873;DHT22;34586;53.616;10.032;2023-09-07T14:31:16;29.40;99.90
10873;DHT22;34586;53.616;10.032;2023-09-07T14:33:42;29.20;99.90
10873;DHT22;34586;53.616;10.032;2023-09-07T14:36:08;29.00;99.90
10873;DHT22;34586;53.616;10.032;2023-09-07T14:38:37;28.90;99.90
10873;DHT22;34586;53.616;10.032;2023-09-07T14:41:10;28.70;99.90
10873;DHT22;34586;53.616;10.032;2023-09-07T14:43:37;28.70;99.90
10873;DHT22;34586;53.616;10.032;2023-09-07T14:46:03;28.70;99.90
10873;DHT22;34586;53.616;10.032;2023-09-07T14:48:31;28.60;99.90
10873;DHT22;34586;53.616;10.032;2023-09-07T14:50:56;28.50;99.90
10873;DHT22;34586;53.616;10.032;2023-09-07T14:53:22;28.50;99.90
10873;DHT22;34586;53.616;10.032;2023-09-07T14:55:48;28.40;99.90
10873;DHT22;34586;53.616;10.032;2023-09-07T14:58:14;28.40;99.90
10873;DHT22;34586;53.616;10.032;2023-09-07T15:00:39;28.60;99.90
10873;DHT22;34586;53.616;10.032;2023-09-07T15:03:05;28.30;99.90
10873;DHT22;34586;53.616;10.032;2023-09-07T15:05:31;28.30;99.90
10873;DHT22;34586;53.616;10.032;2023-09-07T15:07:57;28.30;99.90
10873;DHT22;34586;53.616;10.032;2023-09-07T15:10:22;28.20;99.90
10873;DHT22;34586;53.616;10.032;2023-09-07T15:12:51;28.20;99.90
10873;DHT22;34586;53.616;10.032;2023-09-07T15:15:16;28.30;99.90
10873;DHT22;34586;53.616;10.032;2023-09-07T15:17:47;28.20;99.90
10873;DHT22;34586;53.616;10.032;2023-09-07T15:20:13;28.00;99.90
10873;DHT22;34586;53.616;10.032;2023-09-07T15:22:38;28.00;99.90